Time;durP1;ratioP1;P1;durP2;ratioP2;P2;SDS_P1;SDS_P2;PMS_P1;PMS_P2;Temp;Humidity;BMP_temperature;BMP_pressure;BME280_temperature;BME280_humidity;BME280_pressure;Samples;Min_cycle;Max_cycle;Signal;HPM_P1;HPM_P2
2023/01/09 00:01:22;;;;;;;60.05;36.38;;;;;;;2.98;100.00;98399.63;5052671;28;20017;-77
2023/01/09 00:03:48;;;;;;;47.78;30.25;;;;;;;3.08;100.00;98413.03;5053703;28;20029;-77
2023/01/09 00:06:13;;;;;;;43.65;28.33;;;;;;;3.08;100.00;98418.16;5054000;28;20047;-77
2023/01/09 00:08:38;;;;;;;47.40;30.30;;;;;;;3.00;100.00;98397.84;5054036;28;20078;-77
2023/01/09 00:11:04;;;;;;;47.78;30.65;;;;;;;3.03;100.00;98389.16;5053807;28;20095;-77
2023/01/09 00:13:29;;;;;;;50.35;32.08;;;;;;;3.10;100.00;98403.50;5052530;28;20102;-78
2023/01/09 00:15:55;;;;;;;42.95;28.83;;;;;;;3.03;100.00;98399.47;5054199;28;20450;-77
2023/01/09 00:18:20;;;;;;;44.88;29.02;;;;;;;3.11;100.00;98414.63;5053789;28;20024;-77
2023/01/09 00:20:45;;;;;;;46.15;28.23;;;;;;;3.05;100.00;98412.28;5053581;28;20028;-77
2023/01/09 00:23:11;;;;;;;46.85;28.27;;;;;;;3.04;100.00;98410.63;5053738;28;20024;-77
2023/01/09 00:25:36;;;;;;;46.58;30.50;;;;;;;3.07;100.00;98416.47;5053486;28;20024;-77
2023/01/09 00:28:02;;;;;;;46.33;28.35;;;;;;;3.11;100.00;98414.63;5052885;28;20056;-77
2023/01/09 00:30:28;;;;;;;45.35;29.38;;;;;;;3.13;100.00;98412.84;5053508;28;20362;-77
2023/01/09 00:32:55;;;;;;;47.22;30.00;;;;;;;3.08;100.00;98400.16;5052941;28;20028;-78
2023/01/09 00:35:23;;;;;;;42.22;26.58;;;;;;;3.08;100.00;98394.19;5053234;28;20504;-77
2023/01/09 00:37:48;;;;;;;49.20;30.45;;;;;;;3.10;100.00;98393.22;5053027;28;20021;-77
2023/01/09 00:40:15;;;;;;;45.83;29.98;;;;;;;3.08;100.00;98386.47;5053279;28;20426;-77
2023/01/09 00:42:44;;;;;;;48.17;31.65;;;;;;;3.15;100.00;98404.16;5053060;28;20041;-78
2023/01/09 00:45:16;;;;;;;50.45;32.45;;;;;;;3.14;100.00;98402.50;5053398;28;20095;-77
2023/01/09 00:47:45;;;;;;;54.10;32.45;;;;;;;3.10;100.00;98389.81;5053238;28;20052;-77
2023/01/09 00:50:19;;;;;;;46.03;28.60;;;;;;;3.11;100.00;98391.47;5052722;28;20031;-77
2023/01/09 00:52:47;;;;;;;48.70;30.73;;;;;;;3.07;100.00;98393.31;5053021;28;20448;-77
2023/01/09 00:55:13;;;;;;;53.47;32.50;;;;;;;3.08;100.00;98389.88;5052881;28;20029;-77
2023/01/09 00:57:39;;;;;;;53.85;31.40;;;;;;;3.10;100.00;98387.22;5052767;28;20098;-77
2023/01/09 01:00:06;;;;;;;48.08;29.70;;;;;;;3.04;100.00;98367.72;5052528;28;20025;-77
2023/01/09 01:02:31;;;;;;;54.50;31.48;;;;;;;3.00;100.00;98364.41;5052662;28;20025;-77
2023/01/09 01:07:42;;;;;;;75.50;41.72;;;;;;;2.99;100.00;98361.88;5052650;28;20036;-77
2023/01/09 01:10:09;;;;;;;71.05;36.22;;;;;;;3.06;100.00;98381.34;5052622;28;20020;-77
2023/01/09 01:12:36;;;;;;;63.75;35.47;;;;;;;3.05;100.00;98384.00;5052770;28;20510;-77
2023/01/09 01:15:03;;;;;;;48.80;31.75;;;;;;;3.03;100.00;98381.47;5052501;28;20460;-77
2023/01/09 01:17:28;;;;;;;56.15;32.50;;;;;;;2.95;100.00;98378.31;5052585;28;20464;-77
2023/01/09 01:19:54;;;;;;;51.78;31.63;;;;;;;2.88;100.00;98364.88;5052105;28;20017;-77
2023/01/09 01:22:19;;;;;;;51.92;33.35;;;;;;;2.96;100.00;98393.72;5052340;28;20017;-77
2023/01/09 01:24:44;;;;;;;52.13;34.15;;;;;;;2.85;100.00;98375.25;5052320;28;20453;-77
2023/01/09 01:27:10;;;;;;;60.65;33.75;;;;;;;2.92;100.00;98402.44;5052532;28;20027;-77
2023/01/09 01:29:35;;;;;;;56.17;34.67;;;;;;;2.88;100.00;98394.88;5052662;28;20021;-77
2023/01/09 01:32:00;;;;;;;58.50;36.33;;;;;;;2.78;100.00;98383.22;5052102;28;20099;-77
2023/01/09 01:34:28;;;;;;;59.42;37.38;;;;;;;2.84;100.00;98394.16;5052206;28;20025;-77
2023/01/09 01:36:53;;;;;;;55.83;34.25;;;;;;;2.88;100.00;98400.88;5051903;28;20051;-77
2023/01/09 01:39:18;;;;;;;60.88;37.75;;;;;;;2.94;100.00;98400.63;5052409;28;20025;-77
2023/01/09 01:41:44;;;;;;;56.13;34.75;;;;;;;2.93;100.00;98380.13;5050396;28;20075;-77
2023/01/09 01:44:46;;;;;;;54.50;34.85;;;;;;;3.05;100.00;98381.41;5052286;28;20024;-77
2023/01/09 01:47:14;;;;;;;53.08;34.25;;;;;;;3.02;100.00;98373.81;5052155;28;20225;-77
2023/01/09 01:49:39;;;;;;;54.83;34.75;;;;;;;3.08;100.00;98376.16;5052059;28;20029;-77
2023/01/09 01:52:04;;;;;;;50.15;32.53;;;;;;;3.02;100.00;98359.22;5051927;28;20131;-77
2023/01/09 01:54:31;;;;;;;52.17;33.25;;;;;;;3.04;100.00;98354.88;5052062;28;20028;-77
2023/01/09 01:57:02;;;;;;;48.80;31.52;;;;;;;2.93;100.00;98332.09;5051814;28;20024;-77
2023/01/09 01:59:33;;;;;;;59.03;36.70;;;;;;;3.06;100.00;98342.75;5051910;28;20067;-77
2023/01/09 02:02:01;;;;;;;52.33;33.30;;;;;;;3.02;100.00;98336.06;5050819;28;20086;-77
2023/01/09 02:04:28;;;;;;;47.13;30.10;;;;;;;3.01;100.00;98336.97;5051972;28;20088;-77
2023/01/09 02:06:55;;;;;;;51.28;31.23;;;;;;;2.84;100.00;98300.75;5051781;28;20033;-77
2023/01/09 02:09:22;;;;;;;55.13;32.65;;;;;;;2.98;100.00;98324.22;5052216;28;20103;-77
2023/01/09 02:11:51;;;;;;;54.50;36.03;;;;;;;2.88;100.00;98303.16;5051633;28;20029;-77
2023/01/09 02:14:19;;;;;;;48.95;32.20;;;;;;;2.89;100.00;98294.53;5051720;28;20364;-77
2023/01/09 02:17:02;;;;;;;43.72;29.90;;;;;;;2.97;100.00;98309.69;5051646;28;20032;-77
2023/01/09 02:20:05;;;;;;;43.75;28.98;;;;;;;2.96;100.00;98306.28;5051751;28;20029;-77
2023/01/09 02:22:55;;;;;;;43.65;28.42;;;;;;;2.96;100.00;98297.72;5051710;28;20025;-77
2023/01/09 02:26:05;;;;;;;48.20;28.80;;;;;;;2.95;100.00;98280.59;5051857;28;20025;-77
2023/01/09 02:29:11;;;;;;;47.45;29.92;;;;;;;2.88;100.00;98274.84;5051699;28;20035;-77
2023/01/09 02:31:48;;;;;;;48.95;31.40;;;;;;;2.81;100.00;98262.28;5029228;28;20041;-77
2023/01/09 02:34:23;;;;;;;47.55;30.55;;;;;;;2.91;100.00;98271.34;5029581;28;20033;-77
2023/01/09 02:36:58;;;;;;;52.67;33.70;;;;;;;2.96;100.00;98282.28;5029073;28;20045;-77
2023/01/09 02:39:49;;;;;;;51.50;34.75;;;;;;;2.87;100.00;98262.91;5029134;28;20083;-77
2023/01/09 02:42:21;;;;;;;48.53;31.27;;;;;;;2.93;100.00;98272.09;5028945;28;20049;-77
2023/01/09 02:44:46;;;;;;;50.80;31.52;;;;;;;2.90;100.00;98265.34;5029191;28;20021;-77
2023/01/09 02:47:14;;;;;;;49.13;30.95;;;;;;;2.90;100.00;98260.19;5029193;28;20033;-77
2023/01/09 02:49:43;;;;;;;45.45;28.88;;;;;;;2.83;100.00;98233.06;5029137;28;20112;-77
2023/01/09 02:52:14;;;;;;;47.45;30.17;;;;;;;2.90;100.00;98243.94;5028710;28;20084;-77
2023/01/09 02:54:56;;;;;;;43.83;28.35;;;;;;;2.80;100.00;98234.91;5029106;28;20075;-77
2023/01/09 02:57:46;;;;;;;46.35;29.52;;;;;;;2.87;100.00;98234.63;5029176;28;20068;-77
2023/01/09 03:00:23;;;;;;;43.47;28.48;;;;;;;2.89;100.00;98235.38;5028826;28;20132;-77
2023/01/09 03:03:20;;;;;;;44.17;27.33;;;;;;;2.85;100.00;98222.69;5028875;28;20037;-77
2023/01/09 03:05:56;;;;;;;44.80;27.48;;;;;;;2.87;100.00;98226.91;5029010;28;20208;-77
2023/01/09 03:08:27;;;;;;;42.95;26.30;;;;;;;2.80;100.00;98212.59;5039348;28;20037;-77
2023/01/09 03:11:01;;;;;;;40.67;26.77;;;;;;;2.85;100.00;98227.84;5050955;28;20029;-77
2023/01/09 03:13:31;;;;;;;44.95;27.08;;;;;;;2.80;100.00;98217.75;5053286;28;20491;-77
2023/01/09 03:15:59;;;;;;;43.58;26.88;;;;;;;2.81;100.00;98216.84;5054707;28;20028;-77
2023/01/09 03:18:27;;;;;;;47.90;29.65;;;;;;;2.83;100.00;98224.50;5054643;28;20020;-77
2023/01/09 03:20:54;;;;;;;45.13;28.20;;;;;;;2.73;100.00;98209.41;5054786;28;20156;-77
2023/01/09 03:23:19;;;;;;;46.90;28.77;;;;;;;2.72;100.00;98212.88;5053281;28;20419;-77
2023/01/09 03:25:44;;;;;;;44.15;28.58;;;;;;;2.71;100.00;98223.22;5054821;28;20016;-77
2023/01/09 03:28:23;;;;;;;54.00;33.60;;;;;;;2.71;100.00;98225.81;5054545;28;20024;-77
2023/01/09 03:30:48;;;;;;;57.00;35.42;;;;;;;2.70;100.00;98227.53;5054833;28;20017;-77
2023/01/09 03:33:13;;;;;;;56.40;32.55;;;;;;;2.67;100.00;98206.25;5054293;28;20029;-77
2023/01/09 03:35:39;;;;;;;53.03;33.17;;;;;;;2.71;100.00;98210.38;5054420;28;20024;-77
2023/01/09 03:38:04;;;;;;;56.72;33.00;;;;;;;2.70;100.00;98214.69;5054271;28;20369;-77
2023/01/09 03:40:29;;;;;;;53.67;32.40;;;;;;;2.64;100.00;98211.50;5054420;28;20415;-77
2023/01/09 03:42:55;;;;;;;45.83;27.70;;;;;;;2.68;100.00;98219.03;5053979;28;20041;-77
2023/01/09 03:45:20;;;;;;;47.42;30.23;;;;;;;2.68;100.00;98206.19;5054312;28;20021;-77
2023/01/09 03:47:45;;;;;;;47.40;32.08;;;;;;;2.67;100.00;98204.50;5054280;28;20017;-77
2023/01/09 03:50:11;;;;;;;42.08;29.13;;;;;;;2.68;100.00;98200.19;5053942;28;20338;-77
2023/01/09 03:52:36;;;;;;;45.45;28.70;;;;;;;2.64;100.00;98186.63;5054230;28;20040;-77
2023/01/09 03:55:01;;;;;;;41.75;28.67;;;;;;;2.65;100.00;98183.16;5054088;28;20388;-77
2023/01/09 03:57:27;;;;;;;45.80;31.30;;;;;;;2.73;100.00;98198.28;5054250;28;20372;-77
2023/01/09 03:59:52;;;;;;;45.45;29.42;;;;;;;2.68;100.00;98180.47;5053788;28;20025;-77
2023/01/09 04:02:17;;;;;;;47.63;31.75;;;;;;;2.69;100.00;98183.88;5054018;28;20090;-77
2023/01/09 04:04:43;;;;;;;46.47;29.73;;;;;;;2.77;100.00;98181.03;5053905;28;20107;-77
2023/01/09 04:07:08;;;;;;;40.17;27.25;;;;;;;2.78;100.00;98170.66;5053597;28;20025;-77
2023/01/09 04:09:33;;;;;;;37.25;27.83;;;;;;;2.82;100.00;98164.50;5054014;28;20025;-77
2023/01/09 04:11:59;;;;;;;40.70;25.80;;;;;;;2.77;100.00;98143.28;5053776;28;20025;-77
2023/01/09 04:14:24;;;;;;;39.35;24.48;;;;;;;2.92;100.00;98160.69;5053971;28;20052;-77
2023/01/09 04:16:49;;;;;;;39.47;27.20;;;;;;;2.95;100.00;98152.00;5053869;28;20021;-77
2023/01/09 04:19:14;;;;;;;46.10;29.48;;;;;;;2.98;100.00;98155.28;5053335;28;20108;-77
2023/01/09 04:21:40;;;;;;;45.35;31.23;;;;;;;3.03;100.00;98144.81;5053533;28;20025;-77
2023/01/09 04:24:06;;;;;;;60.95;40.30;;;;;;;3.08;100.00;98142.91;5052869;28;20021;-77
2023/01/09 04:26:31;;;;;;;91.45;57.20;;;;;;;3.13;100.00;98142.72;5053819;28;20025;-77
2023/01/09 04:28:56;;;;;;;97.97;68.28;;;;;;;3.05;100.00;98130.19;5053334;28;20078;-77
2023/01/09 04:31:21;;;;;;;84.47;61.72;;;;;;;3.11;100.00;98145.34;5053460;28;20028;-77
2023/01/09 04:33:47;;;;;;;69.53;49.65;;;;;;;3.18;100.00;98146.78;5053370;28;20013;-77
2023/01/09 04:36:12;;;;;;;63.30;43.25;;;;;;;3.14;100.00;98145.22;5053021;28;20025;-77
2023/01/09 04:38:38;;;;;;;58.67;40.40;;;;;;;3.20;100.00;98154.44;5053377;28;20023;-77
2023/01/09 04:41:03;;;;;;;47.83;31.48;;;;;;;3.22;100.00;98150.91;5053001;28;20013;-78
2023/01/09 04:43:28;;;;;;;43.88;29.45;;;;;;;3.23;100.00;98137.13;5053166;28;20021;-77
2023/01/09 04:45:54;;;;;;;52.55;32.15;;;;;;;3.23;100.00;98132.00;5053179;28;20078;-77
2023/01/09 04:48:19;;;;;;;37.22;25.67;;;;;;;3.24;100.00;98127.69;5053074;28;20029;-77
2023/01/09 04:50:44;;;;;;;44.35;27.42;;;;;;;3.32;100.00;98138.50;5052888;28;20029;-77
2023/01/09 04:53:10;;;;;;;45.80;28.23;;;;;;;3.36;100.00;98140.03;5052892;28;20028;-77
2023/01/09 04:55:35;;;;;;;43.90;29.27;;;;;;;3.37;100.00;98138.28;5052871;28;20021;-77
2023/01/09 04:58:00;;;;;;;41.88;25.55;;;;;;;3.31;100.00;98121.38;5052851;28;20025;-77
2023/01/09 05:00:26;;;;;;;41.83;25.20;;;;;;;3.34;100.00;98123.00;5052725;28;20052;-78
2023/01/09 05:02:51;;;;;;;44.60;27.48;;;;;;;3.36;100.00;98129.75;5052838;28;20063;-77
2023/01/09 05:05:16;;;;;;;37.78;25.08;;;;;;;3.31;100.00;98112.84;5052358;28;20051;-77
2023/01/09 05:07:42;;;;;;;41.00;26.27;;;;;;;3.39;100.00;98127.03;5052858;28;20020;-77
2023/01/09 05:10:08;;;;;;;44.92;27.65;;;;;;;3.40;100.00;98128.72;5051287;28;20398;-77
2023/01/09 05:12:35;;;;;;;38.53;23.67;;;;;;;3.34;100.00;98105.81;5052646;28;20108;-77
2023/01/09 05:15:01;;;;;;;32.40;22.13;;;;;;;3.29;100.00;98091.47;5052425;28;20481;-77
2023/01/09 05:17:26;;;;;;;41.00;26.10;;;;;;;3.39;100.00;98116.75;5052780;28;20456;-77
2023/01/09 05:19:52;;;;;;;40.95;26.70;;;;;;;3.39;100.00;98118.50;5052325;28;20028;-77
2023/01/09 05:22:17;;;;;;;39.63;26.48;;;;;;;3.33;100.00;98106.72;5052732;28;20079;-77
2023/01/09 05:24:42;;;;;;;31.90;22.58;;;;;;;3.31;100.00;98097.38;5052793;28;20043;-77
2023/01/09 05:27:08;;;;;;;37.75;25.85;;;;;;;3.38;100.00;98117.66;5052211;28;20021;-77
2023/01/09 05:29:33;;;;;;;37.22;25.58;;;;;;;3.38;100.00;98116.84;5052393;28;20032;-77
2023/01/09 05:31:58;;;;;;;37.95;25.60;;;;;;;3.37;100.00;98116.00;5052102;28;20023;-77
2023/01/09 05:34:24;;;;;;;40.35;25.75;;;;;;;3.31;100.00;98111.09;5052235;28;20111;-78
2023/01/09 05:36:49;;;;;;;41.95;26.52;;;;;;;3.20;100.00;98093.53;5052414;28;20021;-77
2023/01/09 05:39:15;;;;;;;36.28;24.25;;;;;;;3.23;100.00;98108.84;5051985;28;20369;-77
2023/01/09 05:41:40;;;;;;;37.40;24.52;;;;;;;3.21;100.00;98094.38;5052265;28;20041;-77
2023/01/09 05:44:05;;;;;;;38.70;26.42;;;;;;;3.23;100.00;98100.28;5051858;28;20028;-78
2023/01/09 05:46:31;;;;;;;38.30;25.27;;;;;;;3.18;100.00;98099.63;5052135;28;20062;-78
2023/01/09 05:48:57;;;;;;;39.63;26.38;;;;;;;3.18;100.00;98095.34;5051982;28;20021;-77
2023/01/09 05:51:22;;;;;;;41.28;25.05;;;;;;;3.10;100.00;98096.53;5051833;28;20452;-78
2023/01/09 05:53:48;;;;;;;37.85;26.23;;;;;;;3.14;100.00;98092.94;5052349;28;20055;-78
2023/01/09 05:56:13;;;;;;;43.08;26.55;;;;;;;3.06;100.00;98084.72;5051654;28;20025;-78
2023/01/09 05:58:39;;;;;;;37.75;25.83;;;;;;;3.04;100.00;98083.94;5051900;28;20456;-78
2023/01/09 06:01:05;;;;;;;37.15;24.48;;;;;;;3.07;100.00;98094.94;5051564;28;20116;-78
2023/01/09 06:03:30;;;;;;;39.63;24.67;;;;;;;2.98;100.00;98075.56;5052130;28;20049;-78
2023/01/09 06:05:55;;;;;;;43.80;29.38;;;;;;;3.00;100.00;98078.09;5051714;28;20025;-78
2023/01/09 06:08:22;;;;;;;43.97;28.55;;;;;;;3.04;100.00;98086.53;5051742;28;20021;-78
2023/01/09 06:10:47;;;;;;;50.03;31.60;;;;;;;2.97;100.00;98079.03;5051904;28;20124;-78
2023/01/09 06:13:13;;;;;;;43.40;27.90;;;;;;;3.03;100.00;98093.38;5051641;28;20115;-78
2023/01/09 06:15:38;;;;;;;48.90;32.13;;;;;;;2.98;100.00;98096.13;5051859;28;20036;-78
2023/01/09 06:18:03;;;;;;;50.65;32.95;;;;;;;2.93;100.00;98099.81;5051395;28;20070;-78
2023/01/09 06:20:29;;;;;;;55.75;33.72;;;;;;;2.85;100.00;98101.84;5051643;28;20028;-78
2023/01/09 06:22:55;;;;;;;48.33;30.70;;;;;;;2.81;100.00;98090.00;5051837;28;20021;-78
2023/01/09 06:25:20;;;;;;;47.67;31.02;;;;;;;2.72;100.00;98093.78;5050464;28;20032;-78
2023/01/09 06:27:45;;;;;;;44.08;30.17;;;;;;;2.69;100.00;98086.19;5052049;28;20104;-78
2023/01/09 06:30:11;;;;;;;51.42;34.58;;;;;;;2.75;100.00;98099.66;5051381;28;20098;-78
2023/01/09 06:32:36;;;;;;;47.92;32.13;;;;;;;2.70;100.00;98081.00;5050239;28;20017;-78
2023/01/09 06:35:02;;;;;;;45.28;28.77;;;;;;;2.71;100.00;98077.53;5051220;28;20061;-78
2023/01/09 06:37:27;;;;;;;49.85;32.85;;;;;;;2.81;100.00;98096.00;5051886;28;20032;-78
2023/01/09 06:39:53;;;;;;;70.80;44.40;;;;;;;2.77;100.00;98079.00;5051652;28;20108;-78
2023/01/09 06:42:19;;;;;;;57.53;38.65;;;;;;;2.74;100.00;98063.72;5051291;28;20052;-78
2023/01/09 06:44:44;;;;;;;51.20;32.05;;;;;;;2.85;100.00;98083.84;5051520;28;20028;-78
2023/01/09 06:47:10;;;;;;;62.58;34.78;;;;;;;2.85;100.00;98076.97;5051191;28;20029;-78
2023/01/09 06:49:35;;;;;;;47.42;28.80;;;;;;;2.83;100.00;98071.06;5055261;28;20057;-78
2023/01/09 06:52:04;;;;;;;42.35;26.35;;;;;;;2.90;100.00;98071.63;5055660;28;20029;-78
2023/01/09 06:54:30;;;;;;;39.50;26.20;;;;;;;2.90;100.00;98067.31;5055364;28;20021;-78
2023/01/09 06:56:55;;;;;;;47.22;33.40;;;;;;;3.02;100.00;98075.44;5055262;28;20375;-78
2023/01/09 06:59:21;;;;;;;39.40;26.25;;;;;;;3.02;100.00;98067.72;5054884;28;20442;-78
2023/01/09 07:01:46;;;;;;;40.33;26.17;;;;;;;3.00;100.00;98063.50;5055071;28;20092;-78
2023/01/09 07:04:11;;;;;;;37.88;25.05;;;;;;;3.00;100.00;98060.09;5054760;28;20112;-78
2023/01/09 07:06:37;;;;;;;43.85;29.25;;;;;;;3.09;100.00;98061.44;5055207;28;20041;-78
2023/01/09 07:09:04;;;;;;;44.13;28.70;;;;;;;3.03;100.00;98052.22;5055357;28;20033;-78
2023/01/09 07:11:30;;;;;;;44.22;28.75;;;;;;;3.09;100.00;98056.31;5055323;28;20075;-78
2023/01/09 07:13:55;;;;;;;40.78;25.88;;;;;;;3.12;100.00;98053.56;5054870;28;20029;-78
2023/01/09 07:16:21;;;;;;;54.40;31.30;;;;;;;3.10;100.00;98040.78;5054636;28;20021;-78
2023/01/09 07:18:46;;;;;;;47.90;28.65;;;;;;;3.09;100.00;98043.44;5054457;28;20049;-78
2023/01/09 07:21:11;;;;;;;51.95;32.60;;;;;;;3.06;100.00;98049.53;5054498;28;20044;-78
2023/01/09 07:23:37;;;;;;;46.15;30.55;;;;;;;3.00;100.00;98044.66;5054860;28;20017;-78
2023/01/09 07:26:02;;;;;;;46.70;30.83;;;;;;;2.97;100.00;98045.63;5054636;28;20025;-78
2023/01/09 07:28:28;;;;;;;37.20;25.17;;;;;;;2.88;100.00;98040.03;5054752;28;20029;-78
2023/01/09 07:30:53;;;;;;;39.97;26.75;;;;;;;2.90;100.00;98040.78;5054588;28;20480;-78
2023/01/09 07:33:19;;;;;;;46.42;30.65;;;;;;;2.88;100.00;98037.44;5044888;28;20048;-78
2023/01/09 07:35:44;;;;;;;41.33;28.30;;;;;;;2.82;100.00;98032.53;5040943;28;20461;-78
2023/01/09 07:38:10;;;;;;;49.67;32.22;;;;;;;2.89;100.00;98046.81;5034093;28;20025;-78
2023/01/09 07:40:35;;;;;;;41.83;28.08;;;;;;;2.89;100.00;98067.41;5047140;28;20064;-78
2023/01/09 07:43:01;;;;;;;46.65;29.13;;;;;;;2.89;100.00;98067.41;5053899;28;20040;-78
2023/01/09 07:45:26;;;;;;;46.90;29.02;;;;;;;2.90;100.00;98067.31;5053888;28;20013;-78
2023/01/09 07:47:51;;;;;;;39.17;26.65;;;;;;;2.92;100.00;98060.41;5054044;28;20056;-78
2023/01/09 07:50:17;;;;;;;42.65;27.92;;;;;;;2.87;100.00;98052.03;5054088;28;20112;-78
2023/01/09 07:52:46;;;;;;;42.17;26.60;;;;;;;2.83;100.00;98040.22;5054412;28;20090;-78
2023/01/09 07:55:12;;;;;;;38.92;25.20;;;;;;;2.92;100.00;98049.28;5053830;28;20017;-78
2023/01/09 07:57:37;;;;;;;45.25;27.27;;;;;;;2.91;100.00;98043.31;5054264;28;20499;-78
2023/01/09 08:00:05;;;;;;;38.97;26.73;;;;;;;2.99;100.00;98055.81;5052865;28;20478;-78
2023/01/09 08:02:31;;;;;;;41.13;28.05;;;;;;;2.95;100.00;98044.84;5053784;28;20130;-78
2023/01/09 08:04:56;;;;;;;42.03;27.05;;;;;;;2.99;100.00;98040.38;5053944;28;20029;-78
2023/01/09 08:07:22;;;;;;;46.95;31.10;;;;;;;3.03;100.00;98048.81;5053849;28;20032;-78
2023/01/09 08:09:47;;;;;;;44.95;29.35;;;;;;;3.05;100.00;98047.03;5053963;28;20079;-78
2023/01/09 08:12:12;;;;;;;46.03;27.95;;;;;;;2.99;100.00;98041.25;5053922;28;20060;-78
2023/01/09 08:14:37;;;;;;;37.85;26.77;;;;;;;3.03;100.00;98041.94;5053807;28;20463;-78
2023/01/09 08:17:03;;;;;;;42.38;28.70;;;;;;;3.11;100.00;98052.75;5053716;28;20480;-78
2023/01/09 08:19:28;;;;;;;47.13;31.70;;;;;;;3.09;100.00;98043.44;5053565;28;20017;-78
2023/01/09 08:21:53;;;;;;;44.35;29.02;;;;;;;3.17;100.00;98051.66;5052338;28;20095;-78
2023/01/09 08:24:19;;;;;;;43.58;30.80;;;;;;;3.19;100.00;98048.13;5053447;28;20202;-78
2023/01/09 08:26:44;;;;;;;43.70;29.35;;;;;;;3.18;100.00;98038.72;5053749;28;20044;-78
2023/01/09 08:29:10;;;;;;;43.53;28.70;;;;;;;3.23;100.00;98046.25;5053324;28;20029;-78
2023/01/09 08:31:35;;;;;;;44.75;29.40;;;;;;;3.15;100.00;98035.44;5053445;28;20040;-78
2023/01/09 08:34:01;;;;;;;43.63;27.98;;;;;;;3.30;100.00;98049.41;5053541;28;20461;-78
2023/01/09 08:36:26;;;;;;;46.55;29.52;;;;;;;3.27;100.00;98037.50;5053106;28;20032;-78
2023/01/09 08:38:52;;;;;;;52.90;32.58;;;;;;;3.23;100.00;98038.53;5053335;28;20024;-78
2023/01/09 08:49:29;;;;;;;55.08;33.05;;;;;;;3.35;100.00;98030.28;5052893;28;20464;-78
2023/01/09 08:51:54;;;;;;;52.00;32.67;;;;;;;3.30;100.00;98021.94;5053527;28;20028;-78
2023/01/09 08:54:19;;;;;;;58.90;36.95;;;;;;;3.37;100.00;98025.94;5052702;28;20457;-78
2023/01/09 08:56:45;;;;;;;48.22;30.40;;;;;;;3.37;100.00;98025.94;5052948;28;20482;-78
2023/01/09 08:59:10;;;;;;;44.17;29.60;;;;;;;3.40;100.00;98027.50;5052847;28;20017;-78
2023/01/09 09:01:36;;;;;;;44.45;28.20;;;;;;;3.33;100.00;98023.53;5052996;28;20025;-78
2023/01/09 09:04:01;;;;;;;43.35;29.00;;;;;;;3.41;100.00;98032.63;5052924;28;20364;-78
2023/01/09 09:06:27;;;;;;;41.50;26.85;;;;;;;3.40;100.00;98028.34;5052585;28;20076;-78
2023/01/09 09:08:52;;;;;;;46.42;30.65;;;;;;;3.49;100.00;98040.81;5051456;28;20426;-78
2023/01/09 09:11:17;;;;;;;45.70;28.48;;;;;;;3.50;100.00;98042.50;5052247;28;20016;-78
2023/01/09 09:13:43;;;;;;;48.28;32.70;;;;;;;3.43;100.00;98028.22;5052943;28;20020;-78
2023/01/09 09:16:08;;;;;;;45.92;28.63;;;;;;;3.58;100.00;98043.88;5052832;28;20082;-78
2023/01/09 09:18:33;;;;;;;75.45;43.85;;;;;;;3.60;100.00;98053.22;5052490;28;20021;-78
2023/01/09 09:20:58;;;;;;;45.78;29.05;;;;;;;3.59;100.00;98043.00;5052478;28;20440;-78
2023/01/09 09:23:24;;;;;;;46.72;29.63;;;;;;;3.69;100.00;98057.97;5052545;28;20468;-78
2023/01/09 09:25:49;;;;;;;40.58;27.50;;;;;;;3.74;100.00;98052.59;5052480;28;20025;-78
2023/01/09 09:28:14;;;;;;;45.20;30.00;;;;;;;3.65;100.00;98037.56;5052364;28;20070;-78
2023/01/09 09:30:41;;;;;;;47.42;28.52;;;;;;;3.70;100.00;98045.91;5052423;28;20380;-78
2023/01/09 09:33:06;;;;;;;64.10;35.97;;;;;;;3.79;100.00;98047.25;5052388;28;20029;-78
2023/01/09 09:35:32;;;;;;;46.70;29.15;;;;;;;3.84;100.00;98050.47;5052403;28;20083;-78
2023/01/09 09:38:00;;;;;;;43.55;28.70;;;;;;;3.88;100.00;98046.84;5052267;28;20032;-78
2023/01/09 09:41:03;;;;;;;43.55;28.40;;;;;;;3.94;100.00;98047.41;5051821;28;20024;-78
2023/01/09 09:46:33;;;;;;;42.60;27.40;;;;;;;4.01;100.00;98053.13;5052168;28;20032;-78
2023/01/09 09:49:07;;;;;;;44.78;29.25;;;;;;;4.03;100.00;98053.88;5052099;28;20064;-78
2023/01/09 09:51:55;;;;;;;45.33;28.95;;;;;;;4.02;100.00;98056.53;5051885;28;20017;-78
2023/01/09 09:54:33;;;;;;;59.72;34.53;;;;;;;4.05;100.00;98057.22;5051878;28;20033;-78
2023/01/09 09:57:02;;;;;;;56.17;33.03;;;;;;;4.07;100.00;98060.56;5051867;28;20464;-78
2023/01/09 09:59:37;;;;;;;57.88;34.17;;;;;;;4.03;100.00;98046.13;5051804;28;20462;-78
2023/01/09 10:02:20;;;;;;;46.75;31.48;;;;;;;4.13;100.00;98055.13;5052212;28;20074;-78
2023/01/09 10:04:50;;;;;;;59.00;38.13;;;;;;;4.21;100.00;98052.19;5051873;28;20481;-78
2023/01/09 10:07:29;;;;;;;63.88;37.90;;;;;;;4.11;100.00;98043.22;5051630;28;20021;-78
2023/01/09 10:09:59;;;;;;;66.93;38.33;;;;;;;4.05;100.00;98028.88;5051781;28;20491;-78
2023/01/09 10:12:28;;;;;;;67.45;40.55;;;;;;;4.15;100.00;98026.72;5051988;28;20024;-78
2023/01/09 10:14:56;;;;;;;60.80;37.90;;;;;;;4.24;100.00;98028.84;5051852;28;20052;-78
2023/01/09 10:17:49;;;;;;;50.28;32.67;;;;;;;4.14;100.00;98019.91;5051661;28;20013;-78
2023/01/09 10:20:23;;;;;;;66.35;38.53;;;;;;;4.36;100.00;98035.19;5051948;28;20053;-78
2023/01/09 10:23:30;;;;;;;64.82;40.30;;;;;;;4.40;100.00;98040.13;5052915;28;20484;-78
2023/01/09 10:26:04;;;;;;;68.75;40.53;;;;;;;4.34;100.00;98032.69;5055924;28;20032;-78
2023/01/09 10:28:53;;;;;;;75.65;48.33;;;;;;;4.48;100.00;98037.19;5055725;28;20338;-78
2023/01/09 10:31:41;;;;;;;66.80;42.38;;;;;;;4.50;100.00;98043.09;5055651;28;20032;-78
2023/01/09 10:34:38;;;;;;;61.58;37.78;;;;;;;4.48;100.00;98047.50;5055777;28;20025;-78
2023/01/09 10:37:10;;;;;;;66.97;42.53;;;;;;;4.48;100.00;98035.44;5016625;28;20044;-78
2023/01/09 10:39:42;;;;;;;64.78;40.17;;;;;;;4.53;100.00;98042.13;5032859;28;20045;-78
2023/01/09 10:42:15;;;;;;;70.03;40.08;;;;;;;4.46;100.00;98044.13;5032920;28;20141;-78
2023/01/09 10:44:52;;;;;;;67.07;42.47;;;;;;;4.52;100.00;98036.13;5032899;28;20056;-78
2023/01/09 10:47:25;;;;;;;60.97;38.10;;;;;;;4.53;100.00;98031.81;5032892;28;20123;-78
2023/01/09 10:49:51;;;;;;;73.60;42.00;;;;;;;4.41;100.00;98036.63;5033104;28;20044;-78
2023/01/09 10:52:29;;;;;;;61.65;39.70;;;;;;;4.44;100.00;98025.34;5032912;28;20477;-78
2023/01/09 10:54:58;;;;;;;62.40;39.30;;;;;;;4.60;100.00;98035.75;5032899;28;20364;-78
2023/01/09 10:57:39;;;;;;;59.17;38.80;;;;;;;4.48;100.00;98032.84;5032521;28;20021;-78
2023/01/09 11:00:05;;;;;;;55.50;35.38;;;;;;;4.60;100.00;98035.75;5032737;28;20203;-78
2023/01/09 11:02:33;;;;;;;62.95;40.47;;;;;;;4.65;100.00;98038.94;5032597;28;20115;-78
2023/01/09 11:04:58;;;;;;;58.58;38.67;;;;;;;4.63;100.00;98033.84;5032738;28;20044;-78
2023/01/09 11:07:30;;;;;;;62.70;38.60;;;;;;;4.64;100.00;98026.97;5032402;28;20061;-78
2023/01/09 11:09:59;;;;;;;62.75;38.47;;;;;;;4.77;100.00;98028.03;5032638;28;20132;-78
2023/01/09 11:12:29;;;;;;;72.70;42.28;;;;;;;4.75;100.00;98027.25;5032248;28;20037;-78
2023/01/09 11:14:55;;;;;;;70.93;43.50;;;;;;;4.81;100.00;98032.13;5053430;28;20060;-78
2023/01/09 11:17:25;;;;;;;59.08;37.85;;;;;;;4.86;100.00;98017.25;5054691;28;20460;-78
2023/01/09 11:20:02;;;;;;;68.20;41.40;;;;;;;4.90;100.00;98025.69;5054712;28;20052;-78
2023/01/09 11:22:27;;;;;;;63.80;39.00;;;;;;;4.89;100.00;98024.88;5054429;28;20040;-78
2023/01/09 11:25:00;;;;;;;87.45;63.38;;;;;;;5.05;100.00;98022.31;5054878;28;20455;-78
2023/01/09 11:27:26;;;;;;;86.55;62.33;;;;;;;5.04;100.00;98012.94;5054565;28;20046;-78
2023/01/09 11:30:15;;;;;;;80.80;55.95;;;;;;;5.04;100.00;98025.00;5054735;28;20108;-78
2023/01/09 11:32:41;;;;;;;79.55;52.35;;;;;;;5.08;100.00;98022.19;5054511;28;20437;-78
2023/01/09 11:35:16;;;;;;;64.28;42.35;;;;;;;5.10;100.00;98006.59;5054740;28;20021;-78
2023/01/09 11:37:43;;;;;;;75.07;51.60;;;;;;;5.09;100.00;98023.84;5054527;28;20113;-78